Time,TemperatureF,DewpointF,PressureIn,WindDirection,WindDirectionDegrees,WindSpeedMPH,WindSpeedGustMPH,Humidity,HourlyPrecipIn,Conditions,Clouds,dailyrainin,SoftwareType,DateUTC
2013-06-02 00:00:00,74.9,67.2,29.55,NNE,23,0.0,0.4,77,0.00,,,0.00,WUHU216HW,2013-06-02 04:00:00,
2013-06-02 00:01:00,74.9,67.2,29.55,NNE,23,0.0,0.4,77,0.00,,,0.00,WUHU216HW,2013-06-02 04:01:00,
2013-06-02 00:02:00,74.9,67.2,29.55,NNE,23,0.0,0.4,77,0.00,,,0.00,WUHU216HW,2013-06-02 04:02:00,
2013-06-02 00:07:00,74.5,66.5,29.55,NNE,23,0.0,0.0,76,0.00,,,0.00,WUHU216HW,2013-06-02 04:07:00,
2013-06-02 00:12:00,74.5,66.9,29.55,NNE,23,0.0,0.0,77,0.00,,,0.00,WUHU216HW,2013-06-02 04:12:00,
2013-06-02 00:17:00,74.2,66.5,29.54,NNE,23,0.0,0.0,77,0.00,,,0.00,WUHU216HW,2013-06-02 04:17:00,
2013-06-02 00:22:00,74.0,66.7,29.55,NNE,23,0.9,0.9,78,0.00,,,0.00,WUHU216HW,2013-06-02 04:22:00,
2013-06-02 00:28:00,73.6,67.1,29.54,NNE,23,0.4,0.9,80,0.00,,,0.00,WUHU216HW,2013-06-02 04:28:00,
2013-06-02 00:33:00,73.4,67.0,29.54,NNE,23,0.0,0.4,80,0.00,,,0.00,WUHU216HW,2013-06-02 04:33:00,
2013-06-02 00:38:00,73.4,67.0,29.54,NNE,23,0.2,0.7,80,0.00,,,0.00,WUHU216HW,2013-06-02 04:38:00,
2013-06-02 00:43:00,73.1,67.0,29.54,NNE,23,0.4,0.7,81,0.00,,,0.00,WUHU216HW,2013-06-02 04:43:00,
2013-06-02 00:48:00,73.1,67.0,29.54,NNE,23,0.4,0.4,81,0.00,,,0.00,WUHU216HW,2013-06-02 04:48:00,
2013-06-02 00:53:00,72.7,66.6,29.54,NNE,23,0.0,0.4,81,0.00,,,0.00,WUHU216HW,2013-06-02 04:53:00,
2013-06-02 00:58:00,72.7,66.6,29.54,NNE,23,0.0,0.4,81,0.00,,,0.00,WUHU216HW,2013-06-02 04:58:00,
2013-06-02 01:03:00,72.5,66.1,29.54,NNE,23,0.0,0.0,80,0.00,,,0.00,WUHU216HW,2013-06-02 05:03:00,
2013-06-02 01:08:00,72.5,66.4,29.54,NNE,23,0.0,0.0,81,0.00,,,0.00,WUHU216HW,2013-06-02 05:08:00,
2013-06-02 01:14:00,72.2,65.7,29.54,NNE,23,0.0,0.0,80,0.00,,,0.00,WUHU216HW,2013-06-02 05:14:00,
2013-06-02 01:19:00,72.0,65.9,29.53,NNE,23,1.1,1.1,81,0.00,,,0.00,WUHU216HW,2013-06-02 05:19:00,
2013-06-02 01:24:00,71.6,65.9,29.53,NNE,23,0.7,1.1,82,0.00,,,0.00,WUHU216HW,2013-06-02 05:24:00,
2013-06-02 01:29:00,71.6,65.9,29.53,NNE,23,0.9,0.9,82,0.00,,,0.00,WUHU216HW,2013-06-02 05:29:00,
2013-06-02 01:34:00,71.5,65.7,29.54,NNE,23,0.0,0.9,82,0.00,,,0.00,WUHU216HW,2013-06-02 05:34:00,
2013-06-02 01:39:00,71.5,65.7,29.53,NNE,23,0.4,0.4,82,0.00,,,0.00,WUHU216HW,2013-06-02 05:39:00,
2013-06-02 01:44:00,71.3,65.5,29.53,NE,45,0.0,0.4,82,0.00,,,0.00,WUHU216HW,2013-06-02 05:44:00,
2013-06-02 01:49:00,71.3,65.5,29.53,NE,45,0.0,0.2,82,0.00,,,0.00,WUHU216HW,2013-06-02 05:49:00,
2013-06-02 01:54:00,71.1,65.4,29.53,NE,45,0.0,0.0,82,0.00,,,0.00,WUHU216HW,2013-06-02 05:54:00,
2013-06-02 01:59:00,70.9,65.2,29.52,NE,45,0.0,0.0,82,0.00,,,0.00,WUHU216HW,2013-06-02 05:59:00,
2013-06-02 02:05:00,70.9,65.2,29.52,NE,45,0.2,0.2,82,0.00,,,0.00,WUHU216HW,2013-06-02 06:05:00,
2013-06-02 02:10:00,70.7,65.0,29.52,NE,45,0.2,0.2,82,0.00,,,0.00,WUHU216HW,2013-06-02 06:10:00,
2013-06-02 02:15:00,70.6,64.8,29.52,NE,45,0.0,0.2,82,0.00,,,0.00,WUHU216HW,2013-06-02 06:15:00,
2013-06-02 02:20:00,70.6,65.1,29.52,NE,45,0.4,0.4,83,0.00,,,0.00,WUHU216HW,2013-06-02 06:20:00,
2013-06-02 02:25:00,70.4,64.9,29.52,NE,45,0.0,0.4,83,0.00,,,0.00,WUHU216HW,2013-06-02 06:25:00,
2013-06-02 02:30:00,70.2,64.7,29.52,NE,45,0.0,0.4,83,0.00,,,0.00,WUHU216HW,2013-06-02 06:30:00,
2013-06-02 02:35:00,70.2,64.7,29.52,NE,45,0.0,0.0,83,0.00,,,0.00,WUHU216HW,2013-06-02 06:35:00,
2013-06-02 02:40:00,70.2,65.1,29.52,NE,45,0.0,0.2,84,0.00,,,0.00,WUHU216HW,2013-06-02 06:40:00,
2013-06-02 02:46:00,70.2,65.1,29.52,NE,45,0.0,0.2,84,0.00,,,0.00,WUHU216HW,2013-06-02 06:46:00,
2013-06-02 02:51:00,70.0,64.9,29.52,NE,45,0.7,0.7,84,0.00,,,0.00,WUHU216HW,2013-06-02 06:51:00,
2013-06-02 02:56:00,70.0,65.3,29.51,NE,45,0.0,0.7,85,0.00,,,0.00,WUHU216HW,2013-06-02 06:56:00,
2013-06-02 03:01:00,69.8,65.1,29.51,NE,45,0.0,0.7,85,0.00,,,0.00,WUHU216HW,2013-06-02 07:01:00,
2013-06-02 03:06:00,69.8,64.7,29.51,NE,45,0.0,0.0,84,0.00,,,0.00,WUHU216HW,2013-06-02 07:06:00,
2013-06-02 03:11:00,69.8,65.1,29.52,NE,45,0.0,0.4,85,0.00,,,0.00,WUHU216HW,2013-06-02 07:11:00,
2013-06-02 03:16:00,69.7,64.9,29.51,NE,45,0.0,0.4,85,0.00,,,0.00,WUHU216HW,2013-06-02 07:16:00,
2013-06-02 03:22:00,69.5,64.7,29.51,NE,45,0.0,0.0,85,0.00,,,0.00,WUHU216HW,2013-06-02 07:22:00,
2013-06-02 03:27:00,69.3,64.9,29.51,NE,45,0.4,0.4,86,0.00,,,0.00,WUHU216HW,2013-06-02 07:27:00,
2013-06-02 03:32:00,69.1,64.7,29.51,NE,45,0.4,0.4,86,0.00,,,0.00,WUHU216HW,2013-06-02 07:32:00,
2013-06-02 03:37:00,69.1,64.7,29.51,NE,45,0.4,0.4,86,0.00,,,0.00,WUHU216HW,2013-06-02 07:37:00,
2013-06-02 03:42:00,69.1,64.7,29.51,NE,45,0.0,0.4,86,0.00,,,0.00,WUHU216HW,2013-06-02 07:42:00,
2013-06-02 03:47:00,68.9,64.5,29.51,NE,45,0.0,0.0,86,0.00,,,0.00,WUHU216HW,2013-06-02 07:47:00,
2013-06-02 03:52:00,68.9,64.5,29.51,NE,45,0.0,0.0,86,0.00,,,0.00,WUHU216HW,2013-06-02 07:52:00,
2013-06-02 03:57:00,68.8,64.4,29.51,NE,45,0.0,0.0,86,0.00,,,0.00,WUHU216HW,2013-06-02 07:57:00,
2013-06-02 04:02:00,68.8,64.4,29.51,NE,45,0.0,0.0,86,0.00,,,0.00,WUHU216HW,2013-06-02 08:02:00,
2013-06-02 04:08:00,68.8,64.4,29.52,NE,45,0.0,0.0,86,0.00,,,0.00,WUHU216HW,2013-06-02 08:08:00,
2013-06-02 04:13:00,68.6,64.2,29.51,NE,45,0.0,0.0,86,0.00,,,0.00,WUHU216HW,2013-06-02 08:13:00,
2013-06-02 04:18:00,68.4,64.0,29.51,NE,45,0.0,0.0,86,0.00,,,0.00,WUHU216HW,2013-06-02 08:18:00,
2013-06-02 04:23:00,68.4,64.4,29.51,NE,45,0.0,0.4,87,0.00,,,0.00,WUHU216HW,2013-06-02 08:23:00,
2013-06-02 04:28:00,68.2,64.2,29.51,NE,45,0.0,0.4,87,0.00,,,0.00,WUHU216HW,2013-06-02 08:28:00,
2013-06-02 04:33:00,68.2,64.2,29.51,NE,45,0.2,0.2,87,0.00,,,0.00,WUHU216HW,2013-06-02 08:33:00,
2013-06-02 04:38:00,68.0,64.0,29.51,NE,45,0.0,0.2,87,0.00,,,0.00,WUHU216HW,2013-06-02 08:38:00,
2013-06-02 04:43:00,68.0,64.0,29.51,NE,45,0.0,0.0,87,0.00,,,0.00,WUHU216HW,2013-06-02 08:43:00,
2013-06-02 04:49:00,68.0,64.0,29.51,NE,45,0.4,0.4,87,0.00,,,0.00,WUHU216HW,2013-06-02 08:49:00,
2013-06-02 04:54:00,67.9,63.8,29.51,NE,45,0.0,0.4,87,0.00,,,0.00,WUHU216HW,2013-06-02 08:54:00,
2013-06-02 04:59:00,67.9,64.2,29.51,NE,45,0.0,0.0,88,0.00,,,0.00,WUHU216HW,2013-06-02 08:59:00,
2013-06-02 05:04:00,67.9,64.2,29.51,NE,45,0.0,0.0,88,0.00,,,0.00,WUHU216HW,2013-06-02 09:04:00,
2013-06-02 05:09:00,67.7,64.0,29.51,NE,45,0.0,0.0,88,0.00,,,0.00,WUHU216HW,2013-06-02 09:09:00,
2013-06-02 05:14:00,67.7,64.0,29.51,NE,45,0.0,0.0,88,0.00,,,0.00,WUHU216HW,2013-06-02 09:14:00,
2013-06-02 05:19:00,67.7,64.0,29.51,NE,45,0.2,0.2,88,0.00,,,0.00,WUHU216HW,2013-06-02 09:19:00,
2013-06-02 05:24:00,67.5,63.8,29.51,NE,45,0.0,0.2,88,0.00,,,0.00,WUHU216HW,2013-06-02 09:24:00,
2013-06-02 05:30:00,67.5,63.8,29.51,NE,45,0.0,0.0,88,0.00,,,0.00,WUHU216HW,2013-06-02 09:30:00,
2013-06-02 05:35:00,67.3,63.6,29.51,NE,45,0.0,0.0,88,0.00,,,0.00,WUHU216HW,2013-06-02 09:35:00,
2013-06-02 05:40:00,67.3,63.6,29.51,NE,45,0.0,0.0,88,0.00,,,0.00,WUHU216HW,2013-06-02 09:40:00,
2013-06-02 05:45:00,67.3,63.6,29.51,NE,45,0.0,0.0,88,0.00,,,0.00,WUHU216HW,2013-06-02 09:45:00,
2013-06-02 05:50:00,67.3,63.9,29.51,NE,45,0.0,0.0,89,0.00,,,0.00,WUHU216HW,2013-06-02 09:50:00,
2013-06-02 05:55:00,67.5,63.8,29.51,NE,45,0.0,0.0,88,0.00,,,0.00,WUHU216HW,2013-06-02 09:55:00,
2013-06-02 06:00:00,67.5,64.1,29.51,NE,45,0.0,0.0,89,0.00,,,0.00,WUHU216HW,2013-06-02 10:00:00,
2013-06-02 06:05:00,67.5,64.1,29.51,NE,45,0.0,0.0,89,0.00,,,0.00,WUHU216HW,2013-06-02 10:05:00,
2013-06-02 06:10:00,67.7,64.3,29.51,NE,45,0.0,0.0,89,0.00,,,0.00,WUHU216HW,2013-06-02 10:10:00,
2013-06-02 06:15:00,67.7,64.0,29.52,NE,45,0.0,0.0,88,0.00,,,0.00,WUHU216HW,2013-06-02 10:15:00,
2013-06-02 06:21:00,67.7,64.0,29.51,NE,45,0.0,0.0,88,0.00,,,0.00,WUHU216HW,2013-06-02 10:21:00,
2013-06-02 06:26:00,67.9,64.2,29.51,NE,45,0.0,0.0,88,0.00,,,0.00,WUHU216HW,2013-06-02 10:26:00,
2013-06-02 06:31:00,67.9,64.4,29.51,NE,45,0.0,0.0,89,0.00,,,0.00,WUHU216HW,2013-06-02 10:31:00,
2013-06-02 06:36:00,68.0,64.6,29.51,NE,45,0.0,0.0,89,0.00,,,0.00,WUHU216HW,2013-06-02 10:36:00,
2013-06-02 06:41:00,68.2,64.5,29.51,NE,45,0.0,0.0,88,0.00,,,0.00,WUHU216HW,2013-06-02 10:41:00,
2013-06-02 06:46:00,68.4,65.0,29.51,NE,45,0.0,0.0,89,0.00,,,0.00,WUHU216HW,2013-06-02 10:46:00,
2013-06-02 06:51:00,68.6,65.2,29.51,NE,45,0.0,0.0,89,0.00,,,0.00,WUHU216HW,2013-06-02 10:51:00,
2013-06-02 06:56:00,68.8,65.3,29.51,NE,45,0.0,0.0,89,0.00,,,0.00,WUHU216HW,2013-06-02 10:56:00,
2013-06-02 07:01:00,68.8,65.1,29.51,NE,45,0.0,0.0,88,0.00,,,0.00,WUHU216HW,2013-06-02 11:01:00,
2013-06-02 07:06:00,69.1,65.7,29.51,NE,45,0.0,0.0,89,0.00,,,0.00,WUHU216HW,2013-06-02 11:06:00,
2013-06-02 07:12:00,69.3,65.9,29.51,NE,45,0.0,0.0,89,0.00,,,0.00,WUHU216HW,2013-06-02 11:12:00,
2013-06-02 07:17:00,69.5,66.1,29.51,NE,45,0.0,0.0,89,0.00,,,0.00,WUHU216HW,2013-06-02 11:17:00,
2013-06-02 07:22:00,69.7,65.9,29.51,WNW,293,0.2,0.2,88,0.00,,,0.00,WUHU216HW,2013-06-02 11:22:00,
2013-06-02 07:27:00,70.2,66.4,29.51,WSW,248,0.0,0.2,88,0.00,,,0.00,WUHU216HW,2013-06-02 11:27:00,
2013-06-02 07:32:00,70.6,66.8,29.51,WSW,248,0.5,0.7,88,0.00,,,0.00,WUHU216HW,2013-06-02 11:32:00,
2013-06-02 07:37:00,70.9,67.1,29.51,WSW,248,0.9,1.6,88,0.00,,,0.00,WUHU216HW,2013-06-02 11:37:00,
2013-06-02 07:42:00,71.3,67.5,29.51,WSW,248,0.2,1.6,88,0.00,,,0.00,WUHU216HW,2013-06-02 11:42:00,
2013-06-02 07:47:00,71.8,67.8,29.51,WSW,244,1.8,2.0,87,0.00,,,0.00,WUHU216HW,2013-06-02 11:47:00,
2013-06-02 07:52:00,72.0,67.6,29.51,WSW,244,0.5,2.0,86,0.00,,,0.00,WUHU216HW,2013-06-02 11:52:00,
2013-06-02 07:57:00,72.4,68.0,29.51,WSW,248,0.4,1.1,86,0.00,,,0.00,WUHU216HW,2013-06-02 11:57:00,
2013-06-02 08:03:00,72.5,68.1,29.51,SW,225,0.7,0.7,86,0.00,,,0.00,WUHU216HW,2013-06-02 12:03:00,
2013-06-02 08:08:00,73.1,68.7,29.51,WSW,248,1.1,1.1,86,0.00,,,0.00,WUHU216HW,2013-06-02 12:08:00,
2013-06-02 08:13:00,73.1,68.3,29.51,WSW,248,0.8,1.1,85,0.00,,,0.00,WUHU216HW,2013-06-02 12:13:00,
2013-06-02 08:18:00,73.4,68.7,29.51,WSW,248,0.9,1.1,85,0.00,,,0.00,WUHU216HW,2013-06-02 12:18:00,
2013-06-02 08:23:00,73.6,68.9,29.50,WSW,248,1.1,1.1,85,0.00,,,0.00,WUHU216HW,2013-06-02 12:23:00,
2013-06-02 08:28:00,73.8,69.0,29.50,WSW,248,3.4,3.4,85,0.00,,,0.00,WUHU216HW,2013-06-02 12:28:00,
2013-06-02 08:33:00,74.2,69.0,29.50,WSW,248,0.2,3.4,84,0.00,,,0.00,WUHU216HW,2013-06-02 12:33:00,
2013-06-02 08:38:00,74.5,69.4,29.50,West,270,0.0,3.4,84,0.00,,,0.00,WUHU216HW,2013-06-02 12:38:00,
2013-06-02 08:43:00,74.7,69.2,29.50,WSW,248,0.0,0.9,83,0.00,,,0.00,WUHU216HW,2013-06-02 12:43:00,
2013-06-02 08:48:00,75.2,69.8,29.49,SW,225,0.7,0.9,83,0.00,,,0.00,WUHU216HW,2013-06-02 12:48:00,
2013-06-02 08:53:00,75.6,69.8,29.49,WSW,248,0.6,1.8,82,0.00,,,0.00,WUHU216HW,2013-06-02 12:53:00,
2013-06-02 08:58:00,76.0,70.1,29.49,SW,225,2.0,2.0,82,0.00,,,0.00,WUHU216HW,2013-06-02 12:58:00,
2013-06-02 09:04:00,76.3,70.1,29.49,NNW,338,0.4,2.0,81,0.00,,,0.00,WUHU216HW,2013-06-02 13:04:00,
2013-06-02 09:09:00,76.5,70.3,29.49,SW,225,0.2,2.5,81,0.00,,,0.00,WUHU216HW,2013-06-02 13:09:00,
2013-06-02 09:14:00,77.0,70.4,29.49,WSW,249,2.1,2.5,80,0.00,,,0.00,WUHU216HW,2013-06-02 13:14:00,
2013-06-02 09:19:00,77.4,70.4,29.49,WSW,248,1.1,2.5,79,0.00,,,0.00,WUHU216HW,2013-06-02 13:19:00,
2013-06-02 09:24:00,77.8,70.8,29.48,West,270,1.1,1.8,79,0.00,,,0.00,WUHU216HW,2013-06-02 13:24:00,
2013-06-02 09:29:00,78.1,70.7,29.48,WSW,248,3.1,3.1,78,0.00,,,0.00,WUHU216HW,2013-06-02 13:29:00,
2013-06-02 09:34:00,78.8,71.0,29.48,NNE,13,0.3,3.1,77,0.00,,,0.00,WUHU216HW,2013-06-02 13:34:00,
2013-06-02 09:39:00,79.2,70.9,29.48,ESE,113,1.8,3.1,76,0.00,,,0.00,WUHU216HW,2013-06-02 13:39:00,
2013-06-02 09:44:00,79.6,71.3,29.48,West,270,0.0,1.8,76,0.00,,,0.00,WUHU216HW,2013-06-02 13:44:00,
2013-06-02 09:49:00,80.3,71.6,29.48,West,260,1.8,2.0,75,0.00,,,0.00,WUHU216HW,2013-06-02 13:49:00,
2013-06-02 09:55:00,80.8,72.2,29.47,WSW,248,1.1,2.0,75,0.00,,,0.00,WUHU216HW,2013-06-02 13:55:00,
2013-06-02 10:00:00,81.4,71.9,29.47,West,270,1.3,1.8,73,0.00,,,0.00,WUHU216HW,2013-06-02 14:00:00,
2013-06-02 10:05:00,83.0,72.2,29.47,SSW,203,5.1,5.1,70,0.00,,,0.00,WUHU216HW,2013-06-02 14:05:00,
2013-06-02 10:10:00,83.5,73.1,29.47,WSW,248,0.9,5.1,71,0.00,,,0.00,WUHU216HW,2013-06-02 14:10:00,
2013-06-02 10:15:00,85.1,73.5,29.47,West,272,0.8,5.1,68,0.00,,,0.00,WUHU216HW,2013-06-02 14:15:00,
2013-06-02 10:20:00,85.7,73.5,29.46,SW,225,2.2,2.2,67,0.00,,,0.00,WUHU216HW,2013-06-02 14:20:00,
2013-06-02 10:25:00,86.2,71.2,29.46,SW,230,2.6,3.1,61,0.00,,,0.00,WUHU216HW,2013-06-02 14:25:00,
2013-06-02 10:30:00,86.9,71.9,29.46,WSW,248,2.5,3.1,61,0.00,,,0.00,WUHU216HW,2013-06-02 14:30:00,
2013-06-02 10:35:00,88.0,72.6,29.46,SE,138,3.8,4.5,60,0.00,,,0.00,WUHU216HW,2013-06-02 14:35:00,
2013-06-02 10:41:00,88.6,71.9,29.46,SE,135,2.0,4.5,58,0.00,,,0.00,WUHU216HW,2013-06-02 14:41:00,
2013-06-02 10:46:00,89.3,72.0,29.46,WSW,248,2.5,2.5,57,0.00,,,0.00,WUHU216HW,2013-06-02 14:46:00,
2013-06-02 10:51:00,89.8,72.0,29.46,ESE,113,2.2,2.5,56,0.00,,,0.00,WUHU216HW,2013-06-02 14:51:00,
2013-06-02 10:56:00,90.4,70.8,29.46,WSW,248,2.2,4.7,53,0.00,,,0.00,WUHU216HW,2013-06-02 14:56:00,
2013-06-02 11:01:00,91.1,71.5,29.46,SE,135,1.8,4.7,53,0.00,,,0.00,WUHU216HW,2013-06-02 15:01:00,
2013-06-02 11:06:00,91.4,71.3,29.46,SW,225,3.4,3.6,52,0.00,,,0.00,WUHU216HW,2013-06-02 15:06:00,
2013-06-02 11:11:00,92.2,70.8,29.46,SW,225,4.0,4.0,50,0.00,,,0.00,WUHU216HW,2013-06-02 15:11:00,
2013-06-02 11:16:00,92.5,70.6,29.45,SE,127,3.3,5.4,49,0.00,,,0.00,WUHU216HW,2013-06-02 15:16:00,
2013-06-02 11:21:00,92.9,71.5,29.45,WSW,248,5.4,5.4,50,0.00,,,0.00,WUHU216HW,2013-06-02 15:21:00,
2013-06-02 11:27:00,93.4,70.8,29.45,SW,226,3.7,5.4,48,0.00,,,0.00,WUHU216HW,2013-06-02 15:27:00,
2013-06-02 11:32:00,93.6,70.9,29.45,West,270,1.6,5.4,48,0.00,,,0.00,WUHU216HW,2013-06-02 15:32:00,
2013-06-02 11:37:00,93.4,70.0,29.44,SW,217,1.7,2.0,47,0.00,,,0.00,WUHU216HW,2013-06-02 15:37:00,
2013-06-02 11:42:00,93.2,69.8,29.45,WSW,240,3.5,4.7,47,0.00,,,0.00,WUHU216HW,2013-06-02 15:42:00,
2013-06-02 11:47:00,94.0,69.9,29.45,South,180,6.3,6.3,46,0.00,,,0.00,WUHU216HW,2013-06-02 15:47:00,
2013-06-02 11:52:00,94.1,69.5,29.45,SW,225,6.7,6.7,45,0.00,,,0.00,WUHU216HW,2013-06-02 15:52:00,
2013-06-02 11:57:00,94.7,70.7,29.45,WSW,258,4.0,6.7,46,0.00,,,0.00,WUHU216HW,2013-06-02 15:57:00,
2013-06-02 12:02:00,94.9,70.7,29.44,ESE,113,1.8,6.7,46,0.00,,,0.00,WUHU216HW,2013-06-02 16:02:00,
2013-06-02 12:07:00,95.8,70.9,29.44,WNW,293,2.5,3.1,45,0.00,,,0.00,WUHU216HW,2013-06-02 16:07:00,
2013-06-02 12:12:00,95.8,70.3,29.44,WSW,248,2.9,2.9,44,0.00,,,0.00,WUHU216HW,2013-06-02 16:12:00,
2013-06-02 12:18:00,95.6,68.8,29.44,WNW,293,2.0,2.9,42,0.00,,,0.00,WUHU216HW,2013-06-02 16:18:00,
2013-06-02 12:23:00,95.8,69.6,29.44,NW,306,2.6,3.1,43,0.00,,,0.00,WUHU216HW,2013-06-02 16:23:00,
2013-06-02 12:28:00,96.3,70.1,29.43,West,278,2.2,3.1,43,0.00,,,0.00,WUHU216HW,2013-06-02 16:28:00,
2013-06-02 12:33:00,96.5,70.3,29.44,SE,135,2.9,4.7,43,0.00,,,0.00,WUHU216HW,2013-06-02 16:33:00,
2013-06-02 12:38:00,96.8,70.6,29.43,SSE,158,1.8,4.7,43,0.00,,,0.00,WUHU216HW,2013-06-02 16:38:00,
2013-06-02 12:43:00,97.0,70.7,29.43,East,90,1.1,2.9,43,0.00,,,0.00,WUHU216HW,2013-06-02 16:43:00,
2013-06-02 12:48:00,96.5,70.3,29.43,West,270,4.0,4.0,43,0.00,,,0.00,WUHU216HW,2013-06-02 16:48:00,
2013-06-02 12:53:00,96.7,69.8,29.43,NE,45,0.9,4.0,42,0.00,,,0.00,WUHU216HW,2013-06-02 16:53:00,
2013-06-02 12:59:00,96.8,69.2,29.43,SW,225,2.0,4.0,41,0.00,,,0.00,WUHU216HW,2013-06-02 16:59:00,
2013-06-02 13:04:00,96.7,69.8,29.43,WSW,248,2.5,2.5,42,0.00,,,0.00,WUHU216HW,2013-06-02 17:04:00,
2013-06-02 13:09:00,97.2,69.6,29.43,West,270,6.3,6.3,41,0.00,,,0.00,WUHU216HW,2013-06-02 17:09:00,
2013-06-02 13:14:00,97.2,69.6,29.43,NNE,23,1.8,6.3,41,0.00,,,0.00,WUHU216HW,2013-06-02 17:14:00,
2013-06-02 13:19:00,96.8,69.9,29.43,North,0,2.5,6.3,42,0.00,,,0.00,WUHU216HW,2013-06-02 17:19:00,
2013-06-02 13:24:00,96.8,71.3,29.42,SW,225,1.8,3.4,44,0.00,,,0.00,WUHU216HW,2013-06-02 17:24:00,
2013-06-02 13:29:00,97.2,70.2,29.42,SE,135,3.4,3.4,42,0.00,,,0.00,WUHU216HW,2013-06-02 17:29:00,
2013-06-02 13:34:00,97.6,69.9,29.42,SW,225,5.6,5.6,41,0.00,,,0.00,WUHU216HW,2013-06-02 17:34:00,
2013-06-02 13:40:00,97.2,69.6,29.42,SSE,153,2.5,7.6,41,0.00,,,0.00,WUHU216HW,2013-06-02 17:40:00,
2013-06-02 13:45:00,96.8,69.2,29.41,WSW,248,2.2,7.6,41,0.00,,,0.00,WUHU216HW,2013-06-02 17:45:00,
2013-06-02 13:50:00,96.7,69.1,29.41,NW,315,4.0,4.3,41,0.00,,,0.00,WUHU216HW,2013-06-02 17:50:00,
2013-06-02 13:55:00,97.4,70.4,29.40,NW,306,2.5,4.0,42,0.00,,,0.00,WUHU216HW,2013-06-02 17:55:00,
2013-06-02 14:00:00,97.6,69.9,29.40,West,277,3.3,4.3,41,0.00,,,0.00,WUHU216HW,2013-06-02 18:00:00,
2013-06-02 14:05:00,97.6,69.9,29.39,WSW,248,3.4,4.3,41,0.00,,,0.00,WUHU216HW,2013-06-02 18:05:00,
2013-06-02 14:10:00,97.6,69.2,29.39,WSW,248,0.9,3.8,40,0.00,,,0.00,WUHU216HW,2013-06-02 18:10:00,
2013-06-02 14:15:00,97.4,69.8,29.39,WSW,248,3.5,4.9,41,0.00,,,0.00,WUHU216HW,2013-06-02 18:15:00,
2013-06-02 14:21:00,97.4,69.0,29.38,SW,222,1.3,4.9,40,0.00,,,0.00,WUHU216HW,2013-06-02 18:21:00,
2013-06-02 14:26:00,96.8,68.6,29.38,WSW,248,7.2,7.2,40,0.00,,,0.00,WUHU216HW,2013-06-02 18:26:00,
2013-06-02 14:31:00,96.7,68.4,29.38,SW,225,4.0,7.2,40,0.00,,,0.00,WUHU216HW,2013-06-02 18:31:00,
2013-06-02 14:36:00,96.7,68.4,29.38,SW,225,3.4,7.2,40,0.00,,,0.00,WUHU216HW,2013-06-02 18:36:00,
2013-06-02 14:41:00,96.1,68.6,29.38,SW,215,2.0,4.0,41,0.00,,,0.00,WUHU216HW,2013-06-02 18:41:00,
2013-06-02 14:46:00,95.9,67.8,29.38,WNW,293,2.7,5.4,40,0.00,,,0.00,WUHU216HW,2013-06-02 18:46:00,
2013-06-02 14:51:00,95.4,68.6,29.38,WSW,248,4.5,5.4,42,0.00,,,0.00,WUHU216HW,2013-06-02 18:51:00,
2013-06-02 14:56:00,95.0,67.6,29.39,SW,228,1.9,4.5,41,0.00,,,0.00,WUHU216HW,2013-06-02 18:56:00,
2013-06-02 15:01:00,94.5,67.2,29.38,WSW,251,3.1,4.5,41,0.00,,,0.00,WUHU216HW,2013-06-02 19:01:00,
2013-06-02 15:07:00,94.3,67.0,29.38,WSW,248,7.4,7.4,41,0.00,,,0.00,WUHU216HW,2013-06-02 19:07:00,
2013-06-02 15:12:00,93.8,67.2,29.38,SW,217,2.7,7.4,42,0.00,,,0.00,WUHU216HW,2013-06-02 19:12:00,
2013-06-02 15:17:00,93.6,67.0,29.37,East,90,3.1,7.6,42,0.00,,,0.00,WUHU216HW,2013-06-02 19:17:00,
2013-06-02 15:22:00,93.6,67.0,29.38,West,261,3.1,8.5,42,0.00,,,0.00,WUHU216HW,2013-06-02 19:22:00,
2013-06-02 15:27:00,92.9,67.0,29.37,NNE,20,2.2,8.5,43,0.00,,,0.00,WUHU216HW,2013-06-02 19:27:00,
2013-06-02 15:32:00,92.7,66.8,29.36,West,270,3.4,4.9,43,0.00,,,0.00,WUHU216HW,2013-06-02 19:32:00,
2013-06-02 15:37:00,92.7,66.2,29.36,SSW,203,5.4,5.4,42,0.00,,,0.00,WUHU216HW,2013-06-02 19:37:00,
2013-06-02 15:42:00,92.5,66.0,29.37,North,7,3.2,6.9,42,0.00,,,0.00,WUHU216HW,2013-06-02 19:42:00,
2013-06-02 15:47:00,92.3,65.8,29.37,SSW,203,4.7,6.9,42,0.00,,,0.00,WUHU216HW,2013-06-02 19:47:00,
2013-06-02 15:52:00,92.2,66.3,29.38,SW,225,2.7,4.7,43,0.00,,,0.00,WUHU216HW,2013-06-02 19:52:00,
2013-06-02 15:58:00,92.2,66.3,29.38,WSW,248,4.9,4.9,43,0.00,,,0.00,WUHU216HW,2013-06-02 19:58:00,
2013-06-02 16:03:00,92.0,66.2,29.38,ESE,113,1.6,4.9,43,0.00,,,0.00,WUHU216HW,2013-06-02 20:03:00,
2013-06-02 16:08:00,91.8,66.6,29.38,WSW,237,2.8,5.8,44,0.00,,,0.00,WUHU216HW,2013-06-02 20:08:00,
2013-06-02 16:13:00,91.6,65.8,29.38,West,270,6.5,6.5,43,0.00,,,0.00,WUHU216HW,2013-06-02 20:13:00,
2013-06-02 16:18:00,91.4,65.7,29.38,ENE,68,2.0,6.5,43,0.00,,,0.00,WUHU216HW,2013-06-02 20:18:00,
2013-06-02 16:23:00,91.1,65.3,29.38,East,97,1.2,6.5,43,0.00,,,0.00,WUHU216HW,2013-06-02 20:23:00,
2013-06-02 16:28:00,90.7,65.7,29.38,WSW,248,2.0,2.0,44,0.00,,,0.00,WUHU216HW,2013-06-02 20:28:00,
2013-06-02 16:33:00,90.5,65.5,29.39,South,180,1.3,2.0,44,0.00,,,0.00,WUHU216HW,2013-06-02 20:33:00,
2013-06-02 16:39:00,89.6,65.3,29.39,SSE,158,0.9,1.3,45,0.00,,,0.00,WUHU216HW,2013-06-02 20:39:00,
2013-06-02 16:44:00,89.5,65.8,29.39,WSW,237,1.2,3.1,46,0.00,,,0.00,WUHU216HW,2013-06-02 20:44:00,
2013-06-02 16:49:00,89.1,65.5,29.39,WSW,248,0.7,3.1,46,0.00,,,0.00,WUHU216HW,2013-06-02 20:49:00,
2013-06-02 16:54:00,88.7,65.3,29.41,NNW,338,0.4,3.1,46,0.00,,,0.00,WUHU216HW,2013-06-02 20:54:00,
2013-06-02 16:59:00,86.9,65.5,29.41,SW,225,3.4,3.4,49,0.00,,,0.00,WUHU216HW,2013-06-02 20:59:00,
2013-06-02 17:04:00,85.5,65.3,29.41,NW,315,1.8,3.4,51,0.00,,,0.00,WUHU216HW,2013-06-02 21:04:00,
2013-06-02 17:09:00,84.6,65.1,29.41,NNE,23,1.6,3.4,52,0.00,,,0.00,WUHU216HW,2013-06-02 21:09:00,
2013-06-02 17:14:00,83.2,64.2,29.42,SE,135,0.9,1.8,53,0.00,,,0.00,WUHU216HW,2013-06-02 21:14:00,
2013-06-02 17:19:00,82.6,63.6,29.42,East,90,1.3,1.8,53,0.00,,,0.00,WUHU216HW,2013-06-02 21:19:00,
2013-06-02 17:24:00,81.2,64.4,29.43,North,0,4.5,4.5,57,0.00,,,0.00,WUHU216HW,2013-06-02 21:24:00,
2013-06-02 17:30:00,80.5,64.4,29.44,WSW,254,4.0,4.5,58,0.00,,,0.00,WUHU216HW,2013-06-02 21:30:00,
2013-06-02 17:35:00,79.9,63.8,29.44,SW,225,2.2,4.5,58,0.00,,,0.00,WUHU216HW,2013-06-02 21:35:00,
2013-06-02 17:40:00,79.2,64.3,29.47,SSE,158,2.9,3.8,60,0.00,,,0.00,WUHU216HW,2013-06-02 21:40:00,
2013-06-02 17:45:00,77.4,65.2,29.47,East,90,3.4,3.4,66,0.09,,,0.09,WUHU216HW,2013-06-02 21:45:00,
2013-06-02 17:50:00,76.3,66.2,29.47,NW,315,1.1,4.0,71,0.15,,,0.15,WUHU216HW,2013-06-02 21:50:00,
2013-06-02 17:55:00,74.7,65.1,29.47,SSE,158,0.4,4.0,72,0.17,,,0.17,WUHU216HW,2013-06-02 21:55:00,
2013-06-02 18:00:00,73.6,65.6,29.48,East,90,2.2,2.2,76,0.28,,,0.28,WUHU216HW,2013-06-02 22:00:00,
2013-06-02 18:05:00,72.0,64.4,29.46,NE,45,0.8,2.5,77,0.40,,,0.40,WUHU216HW,2013-06-02 22:05:00,
2013-06-02 18:10:00,71.6,64.5,29.46,ENE,68,0.0,2.5,78,0.41,,,0.41,WUHU216HW,2013-06-02 22:10:00,
2013-06-02 18:15:00,71.5,64.3,29.46,ENE,68,0.2,0.4,78,0.41,,,0.41,WUHU216HW,2013-06-02 22:15:00,
2013-06-02 18:20:00,71.3,64.5,29.46,ENE,68,0.0,0.4,79,0.41,,,0.41,WUHU216HW,2013-06-02 22:20:00,
2013-06-02 18:26:00,71.1,64.6,29.46,ENE,68,0.0,0.4,80,0.41,,,0.41,WUHU216HW,2013-06-02 22:26:00,
2013-06-02 18:31:00,71.1,64.6,29.46,ENE,68,0.2,0.4,80,0.41,,,0.41,WUHU216HW,2013-06-02 22:31:00,
2013-06-02 18:36:00,70.9,64.4,29.46,ENE,68,0.0,0.4,80,0.41,,,0.41,WUHU216HW,2013-06-02 22:36:00,
2013-06-02 18:41:00,70.9,64.8,29.46,ENE,68,0.0,0.0,81,0.41,,,0.41,WUHU216HW,2013-06-02 22:41:00,
2013-06-02 18:46:00,70.9,64.8,29.46,ENE,68,0.0,0.0,81,0.29,,,0.41,WUHU216HW,2013-06-02 22:46:00,
2013-06-02 18:51:00,70.7,65.0,29.46,SSW,203,0.3,0.4,82,0.27,,,0.42,WUHU216HW,2013-06-02 22:51:00,
2013-06-02 18:56:00,70.7,65.0,29.46,SW,222,0.3,0.4,82,0.16,,,0.44,WUHU216HW,2013-06-02 22:56:00,
2013-06-02 19:01:00,70.6,65.1,29.47,SW,225,0.4,0.4,83,0.06,,,0.45,WUHU216HW,2013-06-02 23:01:00,
2013-06-02 19:07:00,70.4,64.9,29.48,WSW,248,2.5,2.5,83,0.04,,,0.45,WUHU216HW,2013-06-02 23:07:00,
2013-06-02 19:12:00,70.0,64.9,29.47,NE,45,0.9,2.5,84,0.13,,,0.54,WUHU216HW,2013-06-02 23:12:00,
2013-06-02 19:17:00,69.7,64.5,29.48,WSW,248,0.2,2.5,84,0.14,,,0.55,WUHU216HW,2013-06-02 23:17:00,
2013-06-02 19:22:00,69.5,64.7,29.51,NNW,347,0.8,1.1,85,0.19,,,0.60,WUHU216HW,2013-06-02 23:22:00,
2013-06-02 19:27:00,69.1,64.7,29.48,ENE,68,1.0,1.8,86,0.34,,,0.75,WUHU216HW,2013-06-02 23:27:00,
2013-06-02 19:32:00,68.9,64.5,29.47,ENE,68,0.4,1.8,86,0.38,,,0.79,WUHU216HW,2013-06-02 23:32:00,
2013-06-02 19:37:00,68.8,64.4,29.48,ENE,68,0.0,1.1,86,0.43,,,0.84,WUHU216HW,2013-06-02 23:37:00,
2013-06-02 19:42:00,68.8,64.7,29.49,NW,305,0.3,0.4,87,0.49,,,0.90,WUHU216HW,2013-06-02 23:42:00,
2013-06-02 19:48:00,68.8,64.7,29.49,West,261,0.8,2.0,87,0.53,,,0.94,WUHU216HW,2013-06-02 23:48:00,
2013-06-02 19:53:00,68.6,64.9,29.49,NNW,338,0.4,2.0,88,0.53,,,0.95,WUHU216HW,2013-06-02 23:53:00,
2013-06-02 19:58:00,68.6,64.9,29.48,WSW,248,0.0,0.9,88,0.52,,,0.96,WUHU216HW,2013-06-02 23:58:00,
2013-06-02 20:03:00,68.6,64.9,29.48,NNW,338,0.7,1.1,88,0.51,,,0.96,WUHU216HW,2013-06-03 00:03:00,
2013-06-02 20:08:00,68.4,65.0,29.47,NNE,16,1.6,1.8,89,0.51,,,0.96,WUHU216HW,2013-06-03 00:08:00,
2013-06-02 20:13:00,68.4,65.0,29.48,NNE,23,0.3,1.8,89,0.41,,,0.96,WUHU216HW,2013-06-03 00:13:00,
2013-06-02 20:18:00,68.4,65.0,29.48,NNW,338,0.2,0.4,89,0.42,,,0.97,WUHU216HW,2013-06-03 00:18:00,
2013-06-02 20:23:00,68.4,65.0,29.48,North,0,0.4,0.9,89,0.33,,,0.97,WUHU216HW,2013-06-03 00:23:00,
2013-06-02 20:28:00,68.4,65.3,29.47,North,349,0.7,2.0,90,0.19,,,0.97,WUHU216HW,2013-06-03 00:28:00,
2013-06-02 20:34:00,68.2,65.2,29.47,WSW,248,1.1,2.0,90,0.18,,,0.97,WUHU216HW,2013-06-03 00:34:00,
2013-06-02 20:39:00,68.0,65.0,29.47,WSW,248,0.4,1.1,90,0.13,,,0.97,WUHU216HW,2013-06-03 00:39:00,
2013-06-02 20:44:00,68.0,65.0,29.47,WSW,248,0.5,1.8,90,0.06,,,0.97,WUHU216HW,2013-06-03 00:44:00,
2013-06-02 20:49:00,68.2,65.2,29.47,North,0,0.9,1.8,90,0.03,,,0.97,WUHU216HW,2013-06-03 00:49:00,
2013-06-02 20:54:00,68.0,65.0,29.47,North,0,0.0,1.3,90,0.01,,,0.97,WUHU216HW,2013-06-03 00:54:00,
2013-06-02 20:59:00,68.0,65.0,29.47,North,0,0.4,0.4,90,0.01,,,0.97,WUHU216HW,2013-06-03 00:59:00,
2013-06-02 21:04:00,68.0,65.0,29.47,North,0,0.0,0.4,90,0.01,,,0.97,WUHU216HW,2013-06-03 01:04:00,
2013-06-02 21:10:00,68.0,65.0,29.48,North,0,0.0,0.4,90,0.01,,,0.97,WUHU216HW,2013-06-03 01:10:00,
2013-06-02 21:15:00,68.0,65.0,29.47,North,0,0.9,1.1,90,0.01,,,0.97,WUHU216HW,2013-06-03 01:15:00,
2013-06-02 21:20:00,68.0,65.0,29.48,North,0,0.0,1.1,90,0.00,,,0.97,WUHU216HW,2013-06-03 01:20:00,
2013-06-02 21:25:00,68.0,65.0,29.47,North,0,0.0,0.4,90,0.00,,,0.97,WUHU216HW,2013-06-03 01:25:00,
2013-06-02 21:30:00,67.9,64.8,29.48,North,0,0.0,0.0,90,0.00,,,0.97,WUHU216HW,2013-06-03 01:30:00,
2013-06-02 21:35:00,67.7,64.6,29.48,North,0,0.0,0.0,90,0.00,,,0.97,WUHU216HW,2013-06-03 01:35:00,
2013-06-02 21:40:00,67.7,64.6,29.48,North,0,0.0,0.0,90,0.00,,,0.97,WUHU216HW,2013-06-03 01:40:00,
2013-06-02 21:45:00,67.5,64.4,29.48,North,0,0.0,0.9,90,0.00,,,0.97,WUHU216HW,2013-06-03 01:45:00,
2013-06-02 21:50:00,67.5,64.7,29.48,WSW,248,0.3,0.9,91,0.00,,,0.97,WUHU216HW,2013-06-03 01:50:00,
2013-06-02 21:55:00,67.3,64.5,29.48,WSW,248,0.0,0.4,91,0.00,,,0.97,WUHU216HW,2013-06-03 01:55:00,
2013-06-02 22:01:00,67.3,64.5,29.48,West,270,0.0,0.4,91,0.00,,,0.97,WUHU216HW,2013-06-03 02:01:00,
2013-06-02 22:06:00,67.3,64.5,29.48,West,270,0.9,0.9,91,0.00,,,0.97,WUHU216HW,2013-06-03 02:06:00,
2013-06-02 22:11:00,67.3,64.5,29.48,North,0,0.5,0.9,91,0.00,,,0.97,WUHU216HW,2013-06-03 02:11:00,
2013-06-02 22:16:00,67.3,64.5,29.48,North,0,0.2,0.9,91,0.00,,,0.97,WUHU216HW,2013-06-03 02:16:00,
2013-06-02 22:21:00,67.3,64.5,29.48,North,0,0.0,0.4,91,0.00,,,0.97,WUHU216HW,2013-06-03 02:21:00,
2013-06-02 22:26:00,67.3,64.5,29.48,North,0,0.0,0.0,91,0.00,,,0.97,WUHU216HW,2013-06-03 02:26:00,
2013-06-02 22:31:00,67.3,64.5,29.47,North,0,0.0,0.0,91,0.00,,,0.97,WUHU216HW,2013-06-03 02:31:00,
2013-06-02 22:36:00,67.3,64.5,29.47,NW,315,0.2,0.2,91,0.00,,,0.97,WUHU216HW,2013-06-03 02:36:00,
2013-06-02 22:41:00,67.1,64.4,29.47,NW,315,0.2,0.2,91,0.00,,,0.97,WUHU216HW,2013-06-03 02:41:00,
2013-06-02 22:47:00,67.1,64.4,29.47,NW,315,0.0,0.2,91,0.00,,,0.97,WUHU216HW,2013-06-03 02:47:00,
2013-06-02 22:52:00,67.0,64.2,29.48,NW,315,0.0,0.2,91,0.00,,,0.97,WUHU216HW,2013-06-03 02:52:00,
2013-06-02 22:57:00,67.0,64.2,29.48,NW,315,0.3,0.7,91,0.00,,,0.97,WUHU216HW,2013-06-03 02:57:00,
2013-06-02 23:02:00,67.0,64.2,29.48,NW,315,0.0,0.7,91,0.00,,,0.97,WUHU216HW,2013-06-03 03:02:00,
2013-06-02 23:07:00,66.8,64.0,29.48,NW,315,0.0,0.0,91,0.00,,,0.97,WUHU216HW,2013-06-03 03:07:00,
2013-06-02 23:12:00,66.8,64.0,29.49,NW,315,0.0,0.0,91,0.00,,,0.97,WUHU216HW,2013-06-03 03:12:00,
2013-06-02 23:17:00,66.8,64.4,29.50,SSE,158,0.2,0.2,92,0.00,,,0.97,WUHU216HW,2013-06-03 03:17:00,
2013-06-02 23:22:00,66.8,64.4,29.50,ENE,68,0.0,1.1,92,0.00,,,0.97,WUHU216HW,2013-06-03 03:22:00,
2013-06-02 23:27:00,66.8,64.4,29.50,ENE,68,0.0,1.1,92,0.00,,,0.97,WUHU216HW,2013-06-03 03:27:00,
2013-06-02 23:32:00,67.0,64.5,29.50,ENE,68,0.4,0.4,92,0.00,,,0.97,WUHU216HW,2013-06-03 03:32:00,
2013-06-02 23:37:00,67.0,64.5,29.49,ENE,68,0.0,0.4,92,0.00,,,0.97,WUHU216HW,2013-06-03 03:37:00,
2013-06-02 23:42:00,67.0,64.5,29.49,ENE,68,0.0,0.2,92,0.00,,,0.97,WUHU216HW,2013-06-03 03:42:00,
2013-06-02 23:47:00,67.0,64.5,29.49,ENE,68,0.0,0.2,92,0.00,,,0.97,WUHU216HW,2013-06-03 03:47:00,
2013-06-02 23:52:00,67.0,64.5,29.49,ENE,68,0.0,0.0,92,0.00,,,0.97,WUHU216HW,2013-06-03 03:52:00,
2013-06-02 23:58:00,66.8,64.4,29.49,ENE,68,0.0,0.0,92,0.00,,,0.97,WUHU216HW,2013-06-03 03:58:00,